EBBR/BRU METAR and TAF weather

Enter ICAO airport designator
Station Type Date Time Source
EBBR METAR 2019/01/21 21:50 UTC NOAA

EBBR 212150Z 20006KT CAVOK M02/M05 Q1017 NOSIG


Station Type Date Time Source
EBBR Decoded METAR 2019/01/21 21:50 UTC NOAA

Bruxelles National, Belgium (EBBR) 50-54N 004-32E 58M
Jan 21, 2019 - 04:50 PM EST / 2019.01.21 2150 UTC
Wind: from the SSW (200 degrees) at 7 MPH (6 KT):0
Visibility: greater than 7 mile(s):0
Temperature: 28 F (-2 C)
Windchill: 21 F (-6 C):1
Dew Point: 23 F (-5 C)
Relative Humidity: 79%
Pressure (altimeter): 30.03 in. Hg (1017 hPa)
ob: EBBR 212150Z 20006KT CAVOK M02/M05 Q1017 NOSIG
cycle: 22

Station Type Date Time Source
EBBR TAF 2019/01/21 18:27 UTC NOAA

TAF TAF EBBR 211710Z 2118/2224 VRB03KT CAVOK
BECMG 2210/2212 18011KT BKN006
TEMPO 2210/2216 3000 -SN PROB40
TEMPO 2212/2215 1200 SN SCT001 BKN002


Example: see airport list